GBHFJ EGPH-EGNV
Flight info
| Callsign | GBHFJ |
|---|---|
| Flight time | 1h 24m |
| Altitude | 5000 |
| Route | TLA DCT AGPED DCT NEW/N0111F040 DCT GIRLI/N0111F050 DCT TD/N0111F040 |
| Aircraft | P28R/L-SDFGR/S |
Departure
| Time | 2026-04-25 09:23 |
|---|---|
| Airport | Edinburgh Airport (EGPH) |
Arrival
| Time | 2026-04-25 10:47 |
|---|---|
| Airport | Teesside International Airport (EGNV) |
| Time | Latitude | Longitude | Altitude | Speed | Heading |
|---|---|---|---|---|---|
| 2026-04-25 08:51 | 55.94719 | -3.34676 | 110 ft | 0 kts | 149° |
| 2026-04-25 09:11 | 55.94715 | -3.34673 | 110 ft | 3 kts | 169° |
| 2026-04-25 09:12 | 55.94727 | -3.34736 | 110 ft | 13 kts | 324° |
| 2026-04-25 09:12 | 55.94805 | -3.34886 | 110 ft | 19 kts | 303° |
| 2026-04-25 09:12 | 55.94875 | -3.35098 | 110 ft | 21 kts | 299° |
| 2026-04-25 09:12 | 55.94946 | -3.35336 | 110 ft | 22 kts | 298° |
| 2026-04-25 09:13 | 55.95024 | -3.35588 | 110 ft | 24 kts | 299° |
| 2026-04-25 09:13 | 55.95109 | -3.35841 | 110 ft | 24 kts | 302° |
| 2026-04-25 09:13 | 55.95210 | -3.36017 | 110 ft | 0 kts | 296° |
| 2026-04-25 09:15 | 55.95212 | -3.36026 | 110 ft | 2 kts | 287° |
| 2026-04-25 09:15 | 55.95208 | -3.36061 | 110 ft | 5 kts | 239° |
| 2026-04-25 09:16 | 55.95171 | -3.36165 | 110 ft | 14 kts | 236° |
| 2026-04-25 09:16 | 55.95124 | -3.36311 | 110 ft | 13 kts | 239° |
| 2026-04-25 09:16 | 55.95079 | -3.36444 | 110 ft | 12 kts | 239° |
| 2026-04-25 09:16 | 55.95039 | -3.36560 | 110 ft | 11 kts | 239° |
| 2026-04-25 09:17 | 55.94968 | -3.36770 | 110 ft | 9 kts | 238° |
| 2026-04-25 09:17 | 55.94939 | -3.36859 | 110 ft | 13 kts | 240° |
| 2026-04-25 09:17 | 55.94877 | -3.37037 | 110 ft | 20 kts | 238° |
| 2026-04-25 09:18 | 55.94792 | -3.37289 | 110 ft | 27 kts | 238° |
| 2026-04-25 09:18 | 55.94686 | -3.37599 | 110 ft | 32 kts | 238° |
| 2026-04-25 09:18 | 55.94572 | -3.37938 | 110 ft | 30 kts | 239° |
| 2026-04-25 09:18 | 55.94475 | -3.38223 | 110 ft | 24 kts | 241° |
| 2026-04-25 09:19 | 55.94449 | -3.38304 | 110 ft | 4 kts | 238° |
| 2026-04-25 09:19 | 55.94396 | -3.38449 | 110 ft | 22 kts | 236° |
| 2026-04-25 09:19 | 55.94318 | -3.38678 | 110 ft | 21 kts | 238° |
| 2026-04-25 09:19 | 55.94280 | -3.38837 | 110 ft | 10 kts | 282° |
| 2026-04-25 09:20 | 55.94320 | -3.38902 | 109 ft | 0 kts | 328° |
| 2026-04-25 09:21 | 55.94333 | -3.38917 | 109 ft | 9 kts | 328° |
| 2026-04-25 09:21 | 55.94406 | -3.38968 | 108 ft | 12 kts | 19° |
| 2026-04-25 09:21 | 55.94439 | -3.38904 | 108 ft | 0 kts | 57° |
| 2026-04-25 09:22 | 55.94527 | -3.38646 | 106 ft | 55 kts | 59° |
| 2026-04-25 09:23 | 55.94805 | -3.37852 | 176 ft | 87 kts | 62° |
| 2026-04-25 09:23 | 55.95119 | -3.36935 | 426 ft | 87 kts | 63° |
| 2026-04-25 09:23 | 55.95430 | -3.36012 | 758 ft | 87 kts | 60° |
| 2026-04-25 09:23 | 55.95772 | -3.35104 | 1075 ft | 89 kts | 57° |
| 2026-04-25 09:24 | 55.96174 | -3.34260 | 1389 ft | 91 kts | 47° |
| 2026-04-25 09:24 | 55.96681 | -3.33577 | 1670 ft | 95 kts | 41° |
| 2026-04-25 09:24 | 55.97215 | -3.32813 | 1928 ft | 97 kts | 46° |
| 2026-04-25 09:24 | 55.97705 | -3.32044 | 2097 ft | 100 kts | 46° |
| 2026-04-25 09:25 | 55.98204 | -3.31179 | 2314 ft | 94 kts | 50° |
| 2026-04-25 09:25 | 55.98655 | -3.30260 | 2397 ft | 102 kts | 54° |
| 2026-04-25 09:25 | 55.99102 | -3.29352 | 2606 ft | 97 kts | 50° |
| 2026-04-25 09:25 | 55.99547 | -3.28439 | 2760 ft | 99 kts | 53° |
| 2026-04-25 09:26 | 55.99998 | -3.27559 | 2969 ft | 95 kts | 45° |
| 2026-04-25 09:26 | 56.00537 | -3.26808 | 3078 ft | 100 kts | 39° |
| 2026-04-25 09:26 | 56.01043 | -3.26034 | 3290 ft | 95 kts | 41° |
| 2026-04-25 09:26 | 56.01549 | -3.25237 | 3419 ft | 98 kts | 43° |
| 2026-04-25 09:27 | 56.02052 | -3.24430 | 3570 ft | 97 kts | 42° |
| 2026-04-25 09:27 | 56.02525 | -3.23579 | 3749 ft | 97 kts | 48° |
| 2026-04-25 09:27 | 56.02979 | -3.22653 | 3886 ft | 99 kts | 49° |
| 2026-04-25 09:27 | 56.03431 | -3.21720 | 4031 ft | 100 kts | 46° |
| 2026-04-25 09:28 | 56.03954 | -3.20943 | 4184 ft | 99 kts | 35° |
| 2026-04-25 09:28 | 56.04490 | -3.20188 | 4326 ft | 99 kts | 37° |
| 2026-04-25 09:28 | 56.05068 | -3.19496 | 4431 ft | 102 kts | 31° |
| 2026-04-25 09:28 | 56.05591 | -3.18639 | 4555 ft | 104 kts | 48° |
| 2026-04-25 09:29 | 56.05997 | -3.17568 | 4707 ft | 102 kts | 56° |
| 2026-04-25 09:29 | 56.06330 | -3.16421 | 4793 ft | 108 kts | 63° |
| 2026-04-25 09:29 | 56.06451 | -3.15069 | 4881 ft | 113 kts | 82° |
| 2026-04-25 09:29 | 56.06426 | -3.13628 | 4905 ft | 120 kts | 96° |
| 2026-04-25 09:30 | 56.06116 | -3.12210 | 4853 ft | 132 kts | 121° |
| 2026-04-25 09:30 | 56.05376 | -3.11208 | 4888 ft | 128 kts | 149° |
| 2026-04-25 09:30 | 56.04659 | -3.10323 | 4990 ft | 123 kts | 144° |
| 2026-04-25 09:30 | 56.04028 | -3.09311 | 5075 ft | 124 kts | 136° |
| 2026-04-25 09:31 | 56.03394 | -3.08221 | 5098 ft | 129 kts | 136° |
| 2026-04-25 09:31 | 56.02985 | -3.07424 | 5094 ft | 133 kts | 130° |
| 2026-04-25 09:31 | 56.02144 | -3.05727 | 5058 ft | 139 kts | 136° |
| 2026-04-25 09:31 | 56.01669 | -3.04953 | 5050 ft | 140 kts | 138° |
| 2026-04-25 09:32 | 56.00921 | -3.03827 | 5007 ft | 142 kts | 143° |
| 2026-04-25 09:32 | 55.99916 | -3.02368 | 5020 ft | 140 kts | 138° |
| 2026-04-25 09:32 | 55.99224 | -3.01115 | 4980 ft | 141 kts | 134° |
| 2026-04-25 09:32 | 55.98563 | -2.99874 | 5027 ft | 137 kts | 135° |
| 2026-04-25 09:33 | 55.97750 | -2.98989 | 4991 ft | 138 kts | 163° |
| 2026-04-25 09:33 | 55.96823 | -2.98652 | 4994 ft | 137 kts | 175° |
| 2026-04-25 09:33 | 55.96179 | -2.98518 | 4965 ft | 138 kts | 177° |
| 2026-04-25 09:33 | 55.95245 | -2.98464 | 4952 ft | 136 kts | 191° |
| 2026-04-25 09:34 | 55.94356 | -2.98962 | 4966 ft | 133 kts | 206° |
| 2026-04-25 09:34 | 55.93520 | -2.99693 | 4945 ft | 134 kts | 210° |
| 2026-04-25 09:34 | 55.92658 | -3.00298 | 4970 ft | 133 kts | 203° |
| 2026-04-25 09:34 | 55.91794 | -3.00919 | 4954 ft | 134 kts | 206° |
| 2026-04-25 09:35 | 55.90933 | -3.01535 | 4967 ft | 133 kts | 206° |
| 2026-04-25 09:35 | 55.90111 | -3.02290 | 4927 ft | 134 kts | 217° |
| 2026-04-25 09:35 | 55.89350 | -3.03210 | 4964 ft | 131 kts | 216° |
| 2026-04-25 09:35 | 55.88523 | -3.03931 | 4946 ft | 133 kts | 208° |
| 2026-04-25 09:36 | 55.87705 | -3.04681 | 4963 ft | 132 kts | 215° |
| 2026-04-25 09:36 | 55.86942 | -3.05519 | 4987 ft | 130 kts | 216° |
| 2026-04-25 09:36 | 55.86181 | -3.06394 | 4987 ft | 131 kts | 217° |
| 2026-04-25 09:36 | 55.85402 | -3.07233 | 4990 ft | 132 kts | 214° |
| 2026-04-25 09:37 | 55.84586 | -3.07989 | 4984 ft | 133 kts | 210° |
| 2026-04-25 09:37 | 55.83746 | -3.08662 | 4989 ft | 132 kts | 209° |
| 2026-04-25 09:37 | 55.82921 | -3.09336 | 4969 ft | 133 kts | 208° |
| 2026-04-25 09:37 | 55.82087 | -3.10015 | 4970 ft | 132 kts | 212° |
| 2026-04-25 09:38 | 55.81294 | -3.10789 | 5010 ft | 128 kts | 213° |
| 2026-04-25 09:38 | 55.80484 | -3.11493 | 5019 ft | 131 kts | 208° |
| 2026-04-25 09:38 | 55.79634 | -3.12045 | 5046 ft | 130 kts | 204° |
| 2026-04-25 09:38 | 55.78806 | -3.12690 | 5032 ft | 131 kts | 211° |
| 2026-04-25 09:39 | 55.78002 | -3.13427 | 5060 ft | 129 kts | 211° |
| 2026-04-25 09:39 | 55.77193 | -3.14083 | 5035 ft | 132 kts | 208° |
| 2026-04-25 09:39 | 55.76340 | -3.14736 | 5020 ft | 133 kts | 207° |
| 2026-04-25 09:40 | 55.74645 | -3.15955 | 5036 ft | 132 kts | 206° |
| 2026-04-25 09:40 | 55.73781 | -3.16499 | 5029 ft | 133 kts | 201° |
| 2026-04-25 09:40 | 55.72882 | -3.16881 | 5038 ft | 133 kts | 195° |
| 2026-04-25 09:40 | 55.72013 | -3.17437 | 5013 ft | 134 kts | 210° |
| 2026-04-25 09:41 | 55.71228 | -3.18327 | 4966 ft | 135 kts | 217° |
| 2026-04-25 09:41 | 55.70425 | -3.19192 | 4945 ft | 134 kts | 214° |
| 2026-04-25 09:41 | 55.69611 | -3.20006 | 4917 ft | 134 kts | 212° |
| 2026-04-25 09:41 | 55.68790 | -3.20742 | 4955 ft | 131 kts | 211° |
| 2026-04-25 09:42 | 55.67978 | -3.21429 | 5007 ft | 128 kts | 208° |
| 2026-04-25 09:42 | 55.67177 | -3.22003 | 5048 ft | 127 kts | 205° |
| 2026-04-25 09:42 | 55.66347 | -3.22659 | 4997 ft | 133 kts | 208° |
| 2026-04-25 09:42 | 55.65503 | -3.23314 | 5007 ft | 132 kts | 206° |
| 2026-04-25 09:43 | 55.64643 | -3.23876 | 5010 ft | 132 kts | 205° |
| 2026-04-25 09:43 | 55.63800 | -3.24507 | 5000 ft | 131 kts | 208° |
| 2026-04-25 09:43 | 55.62982 | -3.25187 | 5015 ft | 129 kts | 211° |
| 2026-04-25 09:43 | 55.62192 | -3.25937 | 5012 ft | 129 kts | 214° |
| 2026-04-25 09:44 | 55.61408 | -3.26718 | 4991 ft | 130 kts | 211° |
| 2026-04-25 09:44 | 55.60605 | -3.27428 | 4985 ft | 130 kts | 211° |
| 2026-04-25 09:44 | 55.59789 | -3.28154 | 4966 ft | 131 kts | 210° |
| 2026-04-25 09:44 | 55.58962 | -3.28809 | 4943 ft | 132 kts | 207° |
| 2026-04-25 09:45 | 55.58098 | -3.29336 | 4980 ft | 130 kts | 198° |
| 2026-04-25 09:45 | 55.57214 | -3.29715 | 4981 ft | 132 kts | 199° |
| 2026-04-25 09:45 | 55.56348 | -3.30177 | 5007 ft | 130 kts | 202° |
| 2026-04-25 09:45 | 55.55551 | -3.30904 | 5024 ft | 128 kts | 215° |
| 2026-04-25 09:46 | 55.54791 | -3.31722 | 5024 ft | 129 kts | 213° |
| 2026-04-25 09:46 | 55.53982 | -3.32432 | 5002 ft | 132 kts | 206° |
| 2026-04-25 09:46 | 55.53108 | -3.32957 | 4995 ft | 133 kts | 201° |
| 2026-04-25 09:46 | 55.52220 | -3.33475 | 4955 ft | 135 kts | 203° |
| 2026-04-25 09:47 | 55.51367 | -3.34131 | 4960 ft | 133 kts | 209° |
| 2026-04-25 09:47 | 55.50523 | -3.34788 | 4956 ft | 133 kts | 195° |
| 2026-04-25 09:47 | 55.49607 | -3.34555 | 4910 ft | 137 kts | 152° |
| 2026-04-25 09:47 | 55.49012 | -3.33300 | 4895 ft | 135 kts | 120° |
| 2026-04-25 09:48 | 55.48594 | -3.31841 | 4945 ft | 131 kts | 117° |
| 2026-04-25 09:48 | 55.48217 | -3.30426 | 4991 ft | 128 kts | 116° |
| 2026-04-25 09:48 | 55.47873 | -3.28971 | 4995 ft | 130 kts | 112° |
| 2026-04-25 09:48 | 55.47462 | -3.27532 | 4996 ft | 133 kts | 119° |
| 2026-04-25 09:49 | 55.47034 | -3.26087 | 4997 ft | 133 kts | 118° |
| 2026-04-25 09:49 | 55.46611 | -3.24628 | 4996 ft | 134 kts | 117° |
| 2026-04-25 09:49 | 55.46189 | -3.23164 | 4993 ft | 134 kts | 117° |
| 2026-04-25 09:49 | 55.45768 | -3.21713 | 4996 ft | 132 kts | 118° |
| 2026-04-25 09:50 | 55.45349 | -3.20263 | 4997 ft | 134 kts | 118° |
| 2026-04-25 09:50 | 55.44923 | -3.18800 | 4994 ft | 135 kts | 118° |
| 2026-04-25 09:50 | 55.44496 | -3.17324 | 4997 ft | 136 kts | 117° |
| 2026-04-25 09:50 | 55.44067 | -3.15839 | 4994 ft | 135 kts | 118° |
| 2026-04-25 09:51 | 55.43641 | -3.14355 | 4993 ft | 136 kts | 117° |
| 2026-04-25 09:51 | 55.43261 | -3.12861 | 4996 ft | 135 kts | 108° |
| 2026-04-25 09:51 | 55.43018 | -3.11271 | 4993 ft | 135 kts | 108° |
| 2026-04-25 09:51 | 55.42726 | -3.09690 | 5009 ft | 135 kts | 107° |
| 2026-04-25 09:52 | 55.42501 | -3.08067 | 4965 ft | 139 kts | 103° |
| 2026-04-25 09:52 | 55.42167 | -3.06473 | 4956 ft | 137 kts | 113° |
| 2026-04-25 09:52 | 55.41853 | -3.04899 | 4956 ft | 136 kts | 107° |
| 2026-04-25 09:52 | 55.41478 | -3.03353 | 4930 ft | 138 kts | 120° |
| 2026-04-25 09:53 | 55.41001 | -3.01902 | 4917 ft | 137 kts | 114° |
| 2026-04-25 09:53 | 55.40677 | -3.00331 | 4891 ft | 136 kts | 111° |
| 2026-04-25 09:53 | 55.40346 | -2.98801 | 4956 ft | 133 kts | 110° |
| 2026-04-25 09:53 | 55.40017 | -2.97276 | 4895 ft | 138 kts | 115° |
| 2026-04-25 09:54 | 55.39573 | -2.95792 | 4915 ft | 136 kts | 119° |
| 2026-04-25 09:54 | 55.39132 | -2.94346 | 4949 ft | 133 kts | 119° |
| 2026-04-25 09:54 | 55.38697 | -2.92926 | 4998 ft | 131 kts | 119° |
| 2026-04-25 09:54 | 55.38276 | -2.91511 | 5033 ft | 131 kts | 118° |
| 2026-04-25 09:55 | 55.37865 | -2.90076 | 5055 ft | 131 kts | 117° |
| 2026-04-25 09:55 | 55.37465 | -2.88607 | 5031 ft | 135 kts | 116° |
| 2026-04-25 09:55 | 55.37039 | -2.87111 | 4986 ft | 137 kts | 117° |
| 2026-04-25 09:55 | 55.36608 | -2.85585 | 4926 ft | 140 kts | 116° |
| 2026-04-25 09:56 | 55.36201 | -2.84042 | 4922 ft | 138 kts | 115° |
| 2026-04-25 09:56 | 55.35814 | -2.82516 | 4880 ft | 139 kts | 114° |
| 2026-04-25 09:56 | 55.35436 | -2.80970 | 4880 ft | 138 kts | 114° |
| 2026-04-25 09:56 | 55.35033 | -2.79446 | 4875 ft | 137 kts | 117° |
| 2026-04-25 09:57 | 55.34593 | -2.77972 | 4901 ft | 135 kts | 119° |
| 2026-04-25 09:57 | 55.34135 | -2.76550 | 4904 ft | 136 kts | 120° |
| 2026-04-25 09:57 | 55.33698 | -2.75107 | 4963 ft | 132 kts | 116° |
| 2026-04-25 09:57 | 55.33304 | -2.73662 | 4994 ft | 131 kts | 115° |
| 2026-04-25 09:58 | 55.32901 | -2.72200 | 5002 ft | 133 kts | 116° |
| 2026-04-25 09:58 | 55.32496 | -2.70757 | 5077 ft | 131 kts | 116° |
| 2026-04-25 09:58 | 55.32099 | -2.69296 | 5050 ft | 134 kts | 116° |
| 2026-04-25 09:58 | 55.31707 | -2.67768 | 4998 ft | 140 kts | 114° |
| 2026-04-25 09:59 | 55.31329 | -2.66191 | 4961 ft | 140 kts | 112° |
| 2026-04-25 09:59 | 55.30991 | -2.64577 | 4924 ft | 139 kts | 108° |
| 2026-04-25 09:59 | 55.30718 | -2.63007 | 4960 ft | 137 kts | 105° |
| 2026-04-25 09:59 | 55.30485 | -2.61387 | 4989 ft | 135 kts | 106° |
| 2026-04-25 10:00 | 55.30129 | -2.59834 | 4938 ft | 138 kts | 111° |
| 2026-04-25 10:00 | 55.29754 | -2.58278 | 4938 ft | 138 kts | 114° |
| 2026-04-25 10:00 | 55.29374 | -2.56755 | 4969 ft | 135 kts | 114° |
| 2026-04-25 10:00 | 55.28956 | -2.55267 | 4949 ft | 137 kts | 120° |
| 2026-04-25 10:01 | 55.28460 | -2.53842 | 4936 ft | 137 kts | 123° |
| 2026-04-25 10:01 | 55.27938 | -2.52429 | 4928 ft | 138 kts | 124° |
| 2026-04-25 10:01 | 55.27405 | -2.51046 | 4959 ft | 136 kts | 124° |
| 2026-04-25 10:01 | 55.26899 | -2.49633 | 4962 ft | 138 kts | 122° |
| 2026-04-25 10:02 | 55.26404 | -2.48199 | 4968 ft | 138 kts | 122° |
| 2026-04-25 10:02 | 55.25901 | -2.46762 | 4969 ft | 139 kts | 122° |
| 2026-04-25 10:02 | 55.25404 | -2.45344 | 4968 ft | 138 kts | 122° |
| 2026-04-25 10:02 | 55.24901 | -2.43908 | 4969 ft | 138 kts | 122° |
| 2026-04-25 10:03 | 55.24397 | -2.42473 | 4967 ft | 138 kts | 122° |
| 2026-04-25 10:03 | 55.23894 | -2.41042 | 4967 ft | 138 kts | 122° |
| 2026-04-25 10:03 | 55.23393 | -2.39607 | 4966 ft | 138 kts | 122° |
| 2026-04-25 10:03 | 55.22889 | -2.38169 | 4966 ft | 139 kts | 122° |
| 2026-04-25 10:04 | 55.22382 | -2.36727 | 4964 ft | 139 kts | 122° |
| 2026-04-25 10:04 | 55.21876 | -2.35291 | 4965 ft | 138 kts | 122° |
| 2026-04-25 10:04 | 55.21372 | -2.33856 | 4967 ft | 139 kts | 122° |
| 2026-04-25 10:04 | 55.20867 | -2.32427 | 4964 ft | 139 kts | 122° |
| 2026-04-25 10:05 | 55.20363 | -2.30992 | 4965 ft | 138 kts | 122° |
| 2026-04-25 10:05 | 55.19868 | -2.29592 | 4975 ft | 137 kts | 122° |
| 2026-04-25 10:05 | 55.19364 | -2.28169 | 4974 ft | 138 kts | 122° |
| 2026-04-25 10:05 | 55.18861 | -2.26748 | 4974 ft | 137 kts | 122° |
| 2026-04-25 10:06 | 55.18382 | -2.25396 | 4974 ft | 137 kts | 122° |
| 2026-04-25 10:06 | 55.18091 | -2.23847 | 4943 ft | 135 kts | 87° |
| 2026-04-25 10:06 | 55.18338 | -2.22315 | 4976 ft | 130 kts | 69° |
| 2026-04-25 10:06 | 55.18618 | -2.20807 | 4977 ft | 131 kts | 70° |
| 2026-04-25 10:07 | 55.18736 | -2.19218 | 4983 ft | 133 kts | 89° |
| 2026-04-25 10:07 | 55.18446 | -2.17665 | 4977 ft | 136 kts | 115° |
| 2026-04-25 10:07 | 55.18034 | -2.16198 | 4978 ft | 136 kts | 116° |
| 2026-04-25 10:07 | 55.17636 | -2.14768 | 4979 ft | 137 kts | 115° |
| 2026-04-25 10:08 | 55.17303 | -2.13552 | 4985 ft | 137 kts | 116° |
| 2026-04-25 10:08 | 55.16899 | -2.12089 | 4993 ft | 137 kts | 115° |
| 2026-04-25 10:08 | 55.16486 | -2.10577 | 4992 ft | 138 kts | 115° |
| 2026-04-25 10:08 | 55.16071 | -2.09066 | 4994 ft | 139 kts | 115° |
| 2026-04-25 10:09 | 55.15652 | -2.07548 | 4991 ft | 138 kts | 115° |
| 2026-04-25 10:09 | 55.15234 | -2.06041 | 4988 ft | 138 kts | 116° |
| 2026-04-25 10:09 | 55.14819 | -2.04534 | 4995 ft | 137 kts | 116° |
| 2026-04-25 10:09 | 55.14405 | -2.03037 | 4993 ft | 137 kts | 115° |
| 2026-04-25 10:10 | 55.13997 | -2.01553 | 4990 ft | 138 kts | 116° |
| 2026-04-25 10:10 | 55.13569 | -2.00036 | 4972 ft | 139 kts | 116° |
| 2026-04-25 10:10 | 55.13117 | -1.98556 | 4998 ft | 139 kts | 120° |
| 2026-04-25 10:10 | 55.12614 | -1.97117 | 4994 ft | 138 kts | 121° |
| 2026-04-25 10:11 | 55.12092 | -1.95713 | 5051 ft | 137 kts | 123° |
| 2026-04-25 10:11 | 55.11555 | -1.94336 | 5058 ft | 137 kts | 126° |
| 2026-04-25 10:11 | 55.11062 | -1.92907 | 5036 ft | 138 kts | 120° |
| 2026-04-25 10:11 | 55.10583 | -1.91458 | 5038 ft | 136 kts | 120° |
| 2026-04-25 10:12 | 55.10136 | -1.89990 | 5022 ft | 138 kts | 118° |
| 2026-04-25 10:12 | 55.09685 | -1.88516 | 5066 ft | 136 kts | 118° |
| 2026-04-25 10:12 | 55.08738 | -1.85600 | 5066 ft | 139 kts | 121° |
| 2026-04-25 10:13 | 55.08231 | -1.84163 | 5049 ft | 140 kts | 122° |
| 2026-04-25 10:13 | 55.07729 | -1.82706 | 5033 ft | 139 kts | 120° |
| 2026-04-25 10:13 | 55.07245 | -1.81240 | 5019 ft | 140 kts | 120° |
| 2026-04-25 10:13 | 55.06746 | -1.79785 | 5017 ft | 139 kts | 122° |
| 2026-04-25 10:14 | 55.06228 | -1.78365 | 5010 ft | 140 kts | 123° |
| 2026-04-25 10:14 | 55.05696 | -1.76962 | 4992 ft | 140 kts | 124° |
| 2026-04-25 10:14 | 55.05174 | -1.75543 | 4998 ft | 139 kts | 121° |
| 2026-04-25 10:14 | 55.04675 | -1.74097 | 4994 ft | 138 kts | 121° |
| 2026-04-25 10:15 | 55.04179 | -1.72676 | 5002 ft | 138 kts | 122° |
| 2026-04-25 10:15 | 55.03656 | -1.71275 | 5001 ft | 138 kts | 129° |
| 2026-04-25 10:15 | 55.02853 | -1.70419 | 5017 ft | 136 kts | 171° |
| 2026-04-25 10:15 | 55.01929 | -1.70425 | 5038 ft | 132 kts | 191° |
| 2026-04-25 10:16 | 55.01010 | -1.70675 | 5032 ft | 133 kts | 193° |
| 2026-04-25 10:16 | 55.00099 | -1.70934 | 5038 ft | 133 kts | 194° |
| 2026-04-25 10:16 | 54.99188 | -1.71240 | 5054 ft | 133 kts | 196° |
| 2026-04-25 10:16 | 54.98291 | -1.71593 | 5054 ft | 133 kts | 198° |
| 2026-04-25 10:17 | 54.97398 | -1.71987 | 5048 ft | 132 kts | 198° |
| 2026-04-25 10:17 | 54.96496 | -1.72352 | 5044 ft | 133 kts | 198° |
| 2026-04-25 10:17 | 54.95592 | -1.72695 | 5053 ft | 133 kts | 194° |
| 2026-04-25 10:17 | 54.94669 | -1.72880 | 5069 ft | 134 kts | 189° |
| 2026-04-25 10:18 | 54.93737 | -1.72995 | 5019 ft | 137 kts | 189° |
| 2026-04-25 10:18 | 54.92798 | -1.73151 | 5030 ft | 135 kts | 191° |
| 2026-04-25 10:18 | 54.91866 | -1.73362 | 5024 ft | 135 kts | 192° |
| 2026-04-25 10:18 | 54.90951 | -1.73597 | 5034 ft | 135 kts | 193° |
| 2026-04-25 10:19 | 54.90027 | -1.73885 | 5042 ft | 135 kts | 196° |
| 2026-04-25 10:19 | 54.89114 | -1.74263 | 5025 ft | 135 kts | 199° |
| 2026-04-25 10:19 | 54.88205 | -1.74665 | 5031 ft | 132 kts | 198° |
| 2026-04-25 10:19 | 54.87313 | -1.75057 | 4875 ft | 136 kts | 199° |
| 2026-04-25 10:20 | 54.86398 | -1.75469 | 4771 ft | 134 kts | 199° |
| 2026-04-25 10:20 | 54.85506 | -1.75907 | 4652 ft | 134 kts | 200° |
| 2026-04-25 10:20 | 54.84618 | -1.76405 | 4528 ft | 134 kts | 204° |
| 2026-04-25 10:20 | 54.83766 | -1.77030 | 4416 ft | 133 kts | 210° |
| 2026-04-25 10:21 | 54.82858 | -1.77297 | 4197 ft | 140 kts | 173° |
| 2026-04-25 10:21 | 54.81990 | -1.76463 | 4058 ft | 141 kts | 145° |
| 2026-04-25 10:21 | 54.81318 | -1.75272 | 3992 ft | 141 kts | 124° |
| 2026-04-25 10:21 | 54.80960 | -1.73718 | 3951 ft | 137 kts | 102° |
| 2026-04-25 10:22 | 54.80897 | -1.72103 | 3965 ft | 132 kts | 88° |
| 2026-04-25 10:22 | 54.80923 | -1.70516 | 3973 ft | 130 kts | 86° |
| 2026-04-25 10:22 | 54.80963 | -1.68956 | 3984 ft | 129 kts | 88° |
| 2026-04-25 10:22 | 54.80992 | -1.67407 | 4008 ft | 127 kts | 86° |
| 2026-04-25 10:23 | 54.81054 | -1.65870 | 3964 ft | 130 kts | 84° |
| 2026-04-25 10:23 | 54.81121 | -1.64288 | 3838 ft | 132 kts | 85° |
| 2026-04-25 10:23 | 54.81114 | -1.62718 | 3778 ft | 129 kts | 91° |
| 2026-04-25 10:23 | 54.81057 | -1.61158 | 3697 ft | 129 kts | 92° |
| 2026-04-25 10:24 | 54.80978 | -1.59600 | 3601 ft | 131 kts | 95° |
| 2026-04-25 10:24 | 54.80867 | -1.58052 | 3498 ft | 131 kts | 93° |
| 2026-04-25 10:24 | 54.80797 | -1.56490 | 3433 ft | 129 kts | 91° |
| 2026-04-25 10:24 | 54.80752 | -1.54929 | 3327 ft | 130 kts | 89° |
| 2026-04-25 10:25 | 54.80747 | -1.53362 | 3224 ft | 129 kts | 86° |
| 2026-04-25 10:25 | 54.80770 | -1.51853 | 3209 ft | 125 kts | 90° |
| 2026-04-25 10:25 | 54.80431 | -1.50479 | 3154 ft | 129 kts | 133° |
| 2026-04-25 10:25 | 54.79645 | -1.49731 | 3098 ft | 129 kts | 158° |
| 2026-04-25 10:26 | 54.78816 | -1.49107 | 3068 ft | 130 kts | 156° |
| 2026-04-25 10:26 | 54.77987 | -1.48478 | 3052 ft | 130 kts | 157° |
| 2026-04-25 10:26 | 54.77138 | -1.47873 | 3000 ft | 134 kts | 159° |
| 2026-04-25 10:26 | 54.76269 | -1.47297 | 2971 ft | 133 kts | 160° |
| 2026-04-25 10:27 | 54.75400 | -1.46729 | 2968 ft | 133 kts | 159° |
| 2026-04-25 10:27 | 54.74559 | -1.46094 | 2921 ft | 131 kts | 156° |
| 2026-04-25 10:27 | 54.73740 | -1.45422 | 2779 ft | 133 kts | 156° |
| 2026-04-25 10:27 | 54.72901 | -1.44765 | 2671 ft | 132 kts | 160° |
| 2026-04-25 10:28 | 54.72067 | -1.44128 | 2568 ft | 131 kts | 158° |
| 2026-04-25 10:28 | 54.71234 | -1.43499 | 2469 ft | 129 kts | 159° |
| 2026-04-25 10:28 | 54.70434 | -1.42831 | 2420 ft | 124 kts | 151° |
| 2026-04-25 10:28 | 54.69684 | -1.42121 | 2370 ft | 124 kts | 150° |
| 2026-04-25 10:29 | 54.68924 | -1.41447 | 2363 ft | 118 kts | 155° |
| 2026-04-25 10:29 | 54.68123 | -1.41428 | 2366 ft | 114 kts | 205° |
| 2026-04-25 10:29 | 54.67577 | -1.42366 | 2268 ft | 119 kts | 253° |
| 2026-04-25 10:29 | 54.67559 | -1.43761 | 2250 ft | 115 kts | 283° |
| 2026-04-25 10:30 | 54.67741 | -1.45082 | 2269 ft | 110 kts | 298° |
| 2026-04-25 10:30 | 54.67960 | -1.45869 | 2249 ft | 109 kts | 302° |
| 2026-04-25 10:30 | 54.67903 | -1.47671 | 2148 ft | 119 kts | 266° |
| 2026-04-25 10:30 | 54.67854 | -1.49003 | 2303 ft | 110 kts | 276° |
| 2026-04-25 10:31 | 54.67722 | -1.50267 | 2453 ft | 107 kts | 249° |
| 2026-04-25 10:31 | 54.67420 | -1.51420 | 2573 ft | 105 kts | 253° |
| 2026-04-25 10:31 | 54.67146 | -1.52633 | 2615 ft | 112 kts | 253° |
| 2026-04-25 10:31 | 54.66832 | -1.53873 | 2646 ft | 117 kts | 246° |
| 2026-04-25 10:32 | 54.66389 | -1.55107 | 2567 ft | 125 kts | 239° |
| 2026-04-25 10:32 | 54.65827 | -1.56287 | 2476 ft | 131 kts | 228° |
| 2026-04-25 10:32 | 54.65165 | -1.57391 | 2386 ft | 134 kts | 231° |
| 2026-04-25 10:32 | 54.64555 | -1.58579 | 2416 ft | 131 kts | 231° |
| 2026-04-25 10:33 | 54.63958 | -1.59786 | 2421 ft | 132 kts | 233° |
| 2026-04-25 10:33 | 54.63359 | -1.60987 | 2430 ft | 131 kts | 232° |
| 2026-04-25 10:33 | 54.62813 | -1.62220 | 2425 ft | 131 kts | 239° |
| 2026-04-25 10:33 | 54.62283 | -1.63494 | 2425 ft | 131 kts | 236° |
| 2026-04-25 10:34 | 54.61697 | -1.64708 | 2435 ft | 131 kts | 230° |
| 2026-04-25 10:34 | 54.61050 | -1.65789 | 2496 ft | 125 kts | 225° |
| 2026-04-25 10:34 | 54.60391 | -1.66743 | 2513 ft | 126 kts | 224° |
| 2026-04-25 10:34 | 54.59708 | -1.67655 | 2511 ft | 123 kts | 220° |
| 2026-04-25 10:35 | 54.59008 | -1.68543 | 2449 ft | 126 kts | 221° |
| 2026-04-25 10:35 | 54.58241 | -1.69258 | 2421 ft | 126 kts | 205° |
| 2026-04-25 10:35 | 54.57432 | -1.69818 | 2419 ft | 124 kts | 210° |
| 2026-04-25 10:35 | 54.56629 | -1.70331 | 2404 ft | 123 kts | 200° |
| 2026-04-25 10:36 | 54.55792 | -1.70688 | 2387 ft | 124 kts | 197° |
| 2026-04-25 10:36 | 54.54972 | -1.71060 | 2399 ft | 122 kts | 202° |
| 2026-04-25 10:36 | 54.54160 | -1.71468 | 2421 ft | 122 kts | 200° |
| 2026-04-25 10:36 | 54.53347 | -1.71905 | 2439 ft | 123 kts | 204° |
| 2026-04-25 10:37 | 54.52512 | -1.72224 | 2460 ft | 123 kts | 193° |
| 2026-04-25 10:37 | 54.51949 | -1.72362 | 2455 ft | 125 kts | 192° |
| 2026-04-25 10:37 | 54.51138 | -1.72490 | 2512 ft | 124 kts | 188° |
| 2026-04-25 10:37 | 54.50285 | -1.72474 | 2546 ft | 128 kts | 183° |
| 2026-04-25 10:38 | 54.49390 | -1.72466 | 2568 ft | 129 kts | 183° |
| 2026-04-25 10:38 | 54.48495 | -1.72272 | 2575 ft | 130 kts | 175° |
| 2026-04-25 10:38 | 54.47612 | -1.72059 | 2570 ft | 127 kts | 177° |
| 2026-04-25 10:38 | 54.46727 | -1.71842 | 2587 ft | 128 kts | 175° |
| 2026-04-25 10:39 | 54.45851 | -1.71515 | 2604 ft | 131 kts | 170° |
| 2026-04-25 10:39 | 54.44963 | -1.71031 | 2526 ft | 136 kts | 166° |
| 2026-04-25 10:39 | 54.44107 | -1.70343 | 2484 ft | 136 kts | 153° |
| 2026-04-25 10:39 | 54.43302 | -1.69478 | 2448 ft | 137 kts | 152° |
| 2026-04-25 10:40 | 54.42525 | -1.68553 | 2416 ft | 135 kts | 146° |
| 2026-04-25 10:40 | 54.41790 | -1.67608 | 2369 ft | 133 kts | 149° |
| 2026-04-25 10:40 | 54.41035 | -1.66743 | 2361 ft | 131 kts | 151° |
| 2026-04-25 10:40 | 54.40533 | -1.66152 | 2371 ft | 129 kts | 150° |
| 2026-04-25 10:41 | 54.39576 | -1.65033 | 2416 ft | 126 kts | 149° |
| 2026-04-25 10:41 | 54.39103 | -1.63819 | 2443 ft | 127 kts | 103° |
| 2026-04-25 10:41 | 54.39264 | -1.62349 | 2455 ft | 128 kts | 56° |
| 2026-04-25 10:41 | 54.39992 | -1.61553 | 2396 ft | 126 kts | 17° |
| 2026-04-25 10:42 | 54.40858 | -1.61281 | 2341 ft | 128 kts | 2° |
| 2026-04-25 10:42 | 54.41716 | -1.60892 | 2346 ft | 129 kts | 25° |
| 2026-04-25 10:42 | 54.42454 | -1.60012 | 2367 ft | 124 kts | 38° |
| 2026-04-25 10:42 | 54.43085 | -1.59040 | 2270 ft | 122 kts | 44° |
| 2026-04-25 10:43 | 54.43625 | -1.58034 | 2129 ft | 109 kts | 49° |
| 2026-04-25 10:43 | 54.44109 | -1.57061 | 1955 ft | 106 kts | 52° |
| 2026-04-25 10:43 | 54.44511 | -1.56035 | 1822 ft | 103 kts | 58° |
| 2026-04-25 10:43 | 54.44859 | -1.54988 | 1712 ft | 101 kts | 61° |
| 2026-04-25 10:44 | 54.45207 | -1.53966 | 1622 ft | 97 kts | 57° |
| 2026-04-25 10:44 | 54.45595 | -1.52994 | 1464 ft | 100 kts | 58° |
| 2026-04-25 10:44 | 54.46020 | -1.52094 | 1318 ft | 89 kts | 47° |
| 2026-04-25 10:44 | 54.46415 | -1.51358 | 1203 ft | 79 kts | 49° |
| 2026-04-25 10:45 | 54.46777 | -1.50680 | 1117 ft | 76 kts | 47° |
| 2026-04-25 10:45 | 54.47131 | -1.50021 | 1041 ft | 74 kts | 50° |
| 2026-04-25 10:45 | 54.47476 | -1.49367 | 979 ft | 73 kts | 47° |
| 2026-04-25 10:45 | 54.47822 | -1.48725 | 885 ft | 73 kts | 49° |
| 2026-04-25 10:46 | 54.48178 | -1.48067 | 772 ft | 76 kts | 47° |
| 2026-04-25 10:46 | 54.48533 | -1.47392 | 672 ft | 76 kts | 48° |
| 2026-04-25 10:46 | 54.48872 | -1.46768 | 601 ft | 70 kts | 48° |
| 2026-04-25 10:46 | 54.49199 | -1.46162 | 510 ft | 69 kts | 48° |
| 2026-04-25 10:47 | 54.49523 | -1.45550 | 392 ft | 70 kts | 45° |
| 2026-04-25 10:47 | 54.49850 | -1.44951 | 298 ft | 68 kts | 47° |
| 2026-04-25 10:47 | 54.50152 | -1.44380 | 192 ft | 61 kts | 46° |
| 2026-04-25 10:47 | 54.50416 | -1.43884 | 125 ft | 49 kts | 48° |
| 2026-04-25 10:48 | 54.50599 | -1.43541 | 121 ft | 34 kts | 47° |
| 2026-04-25 10:48 | 54.50766 | -1.43227 | 120 ft | 37 kts | 47° |
| 2026-04-25 10:48 | 54.50935 | -1.42910 | 120 ft | 36 kts | 47° |
| 2026-04-25 10:48 | 54.51054 | -1.42786 | 120 ft | 12 kts | 300° |
| 2026-04-25 10:49 | 54.51062 | -1.42992 | 121 ft | 24 kts | 276° |
| 2026-04-25 10:49 | 54.51080 | -1.43136 | 121 ft | 12 kts | 316° |
| 2026-04-25 10:49 | 54.51166 | -1.43197 | 121 ft | 0 kts | 328° |